sensor_id;sensor_type;location;lat;lon;timestamp;P1;durP1;ratioP1;P2;durP2;ratioP2
69989;SDS011;57331;52.054;5.294;2023-04-25T00:00:18;11.18;;;3.75;;
69989;SDS011;57331;52.054;5.294;2023-04-25T00:02:46;16.03;;;3.67;;
69989;SDS011;57331;52.054;5.294;2023-04-25T00:05:14;17.20;;;3.67;;
69989;SDS011;57331;52.054;5.294;2023-04-25T00:07:42;18.02;;;3.88;;
69989;SDS011;57331;52.054;5.294;2023-04-25T00:10:10;15.52;;;3.45;;
69989;SDS011;57331;52.054;5.294;2023-04-25T00:12:38;18.50;;;3.95;;
69989;SDS011;57331;52.054;5.294;2023-04-25T00:15:06;12.60;;;3.40;;
69989;SDS011;57331;52.054;5.294;2023-04-25T00:17:33;16.50;;;3.97;;
69989;SDS011;57331;52.054;5.294;2023-04-25T00:20:05;11.73;;;3.17;;
69989;SDS011;57331;52.054;5.294;2023-04-25T00:22:34;11.48;;;4.03;;
69989;SDS011;57331;52.054;5.294;2023-04-25T00:25:04;16.38;;;4.28;;
69989;SDS011;57331;52.054;5.294;2023-04-25T00:27:31;18.90;;;3.80;;
69989;SDS011;57331;52.054;5.294;2023-04-25T00:29:58;14.88;;;4.20;;
69989;SDS011;57331;52.054;5.294;2023-04-25T00:32:26;18.40;;;3.88;;
69989;SDS011;57331;52.054;5.294;2023-04-25T00:34:53;15.98;;;3.95;;
69989;SDS011;57331;52.054;5.294;2023-04-25T00:37:21;19.25;;;3.33;;
69989;SDS011;57331;52.054;5.294;2023-04-25T00:39:49;19.30;;;3.40;;
69989;SDS011;57331;52.054;5.294;2023-04-25T00:42:16;14.38;;;3.75;;
69989;SDS011;57331;52.054;5.294;2023-04-25T00:44:43;17.23;;;3.90;;
69989;SDS011;57331;52.054;5.294;2023-04-25T00:47:11;12.85;;;3.88;;
69989;SDS011;57331;52.054;5.294;2023-04-25T00:49:38;16.35;;;3.60;;
69989;SDS011;57331;52.054;5.294;2023-04-25T00:52:06;12.30;;;3.70;;
69989;SDS011;57331;52.054;5.294;2023-04-25T00:54:33;12.65;;;3.05;;
69989;SDS011;57331;52.054;5.294;2023-04-25T00:57:01;17.77;;;3.38;;
69989;SDS011;57331;52.054;5.294;2023-04-25T00:59:28;9.65;;;3.30;;
69989;SDS011;57331;52.054;5.294;2023-04-25T01:01:57;15.27;;;3.50;;
69989;SDS011;57331;52.054;5.294;2023-04-25T01:04:25;15.40;;;4.17;;
69989;SDS011;57331;52.054;5.294;2023-04-25T01:06:54;12.57;;;3.25;;
69989;SDS011;57331;52.054;5.294;2023-04-25T01:09:22;18.55;;;3.95;;
69989;SDS011;57331;52.054;5.294;2023-04-25T01:11:50;21.23;;;4.13;;
69989;SDS011;57331;52.054;5.294;2023-04-25T01:14:17;13.75;;;4.00;;
69989;SDS011;57331;52.054;5.294;2023-04-25T01:16:45;15.17;;;3.57;;
69989;SDS011;57331;52.054;5.294;2023-04-25T01:19:12;13.98;;;3.63;;
69989;SDS011;57331;52.054;5.294;2023-04-25T01:21:45;14.05;;;3.75;;
69989;SDS011;57331;52.054;5.294;2023-04-25T01:24:12;16.95;;;3.65;;
69989;SDS011;57331;52.054;5.294;2023-04-25T01:26:40;13.10;;;3.67;;
69989;SDS011;57331;52.054;5.294;2023-04-25T01:29:11;12.17;;;3.57;;
69989;SDS011;57331;52.054;5.294;2023-04-25T01:31:39;20.48;;;4.00;;
69989;SDS011;57331;52.054;5.294;2023-04-25T01:34:07;14.48;;;4.00;;
69989;SDS011;57331;52.054;5.294;2023-04-25T01:36:34;17.05;;;3.80;;
69989;SDS011;57331;52.054;5.294;2023-04-25T01:39:01;13.98;;;3.67;;
69989;SDS011;57331;52.054;5.294;2023-04-25T01:41:29;21.07;;;4.07;;
69989;SDS011;57331;52.054;5.294;2023-04-25T01:43:56;17.25;;;3.78;;
69989;SDS011;57331;52.054;5.294;2023-04-25T01:46:23;18.88;;;4.80;;
69989;SDS011;57331;52.054;5.294;2023-04-25T01:48:51;15.88;;;3.72;;
69989;SDS011;57331;52.054;5.294;2023-04-25T01:51:18;15.18;;;3.70;;
69989;SDS011;57331;52.054;5.294;2023-04-25T01:53:46;16.13;;;3.90;;
69989;SDS011;57331;52.054;5.294;2023-04-25T01:56:13;14.25;;;3.70;;
69989;SDS011;57331;52.054;5.294;2023-04-25T01:58:41;16.17;;;3.92;;
69989;SDS011;57331;52.054;5.294;2023-04-25T02:01:34;19.20;;;3.50;;
69989;SDS011;57331;52.054;5.294;2023-04-25T02:04:19;18.13;;;4.18;;
69989;SDS011;57331;52.054;5.294;2023-04-25T02:06:46;16.60;;;3.57;;
69989;SDS011;57331;52.054;5.294;2023-04-25T02:09:14;10.43;;;3.83;;
69989;SDS011;57331;52.054;5.294;2023-04-25T02:11:50;14.95;;;3.80;;
69989;SDS011;57331;52.054;5.294;2023-04-25T02:14:26;16.75;;;3.78;;
69989;SDS011;57331;52.054;5.294;2023-04-25T02:17:05;19.55;;;3.88;;
69989;SDS011;57331;52.054;5.294;2023-04-25T02:19:32;14.67;;;3.57;;
69989;SDS011;57331;52.054;5.294;2023-04-25T02:21:59;16.13;;;3.88;;
69989;SDS011;57331;52.054;5.294;2023-04-25T02:24:27;13.73;;;3.75;;
69989;SDS011;57331;52.054;5.294;2023-04-25T02:26:55;11.35;;;3.35;;
69989;SDS011;57331;52.054;5.294;2023-04-25T02:29:22;13.48;;;3.67;;
69989;SDS011;57331;52.054;5.294;2023-04-25T02:31:50;12.70;;;4.40;;
69989;SDS011;57331;52.054;5.294;2023-04-25T02:34:18;21.13;;;3.75;;
69989;SDS011;57331;52.054;5.294;2023-04-25T02:36:45;18.38;;;4.18;;
69989;SDS011;57331;52.054;5.294;2023-04-25T02:39:16;13.07;;;3.53;;
69989;SDS011;57331;52.054;5.294;2023-04-25T02:41:43;16.08;;;3.55;;
69989;SDS011;57331;52.054;5.294;2023-04-25T02:44:10;12.70;;;3.87;;
69989;SDS011;57331;52.054;5.294;2023-04-25T02:46:37;15.50;;;3.70;;
69989;SDS011;57331;52.054;5.294;2023-04-25T02:49:05;10.52;;;3.47;;
69989;SDS011;57331;52.054;5.294;2023-04-25T02:51:34;19.02;;;3.78;;
69989;SDS011;57331;52.054;5.294;2023-04-25T02:54:02;20.73;;;4.00;;
69989;SDS011;57331;52.054;5.294;2023-04-25T02:56:33;15.60;;;3.23;;
69989;SDS011;57331;52.054;5.294;2023-04-25T02:59:01;13.80;;;3.38;;
69989;SDS011;57331;52.054;5.294;2023-04-25T03:01:28;15.55;;;3.67;;
69989;SDS011;57331;52.054;5.294;2023-04-25T03:03:56;11.65;;;3.92;;
69989;SDS011;57331;52.054;5.294;2023-04-25T03:06:23;10.52;;;3.33;;
69989;SDS011;57331;52.054;5.294;2023-04-25T03:08:51;12.33;;;3.47;;
69989;SDS011;57331;52.054;5.294;2023-04-25T03:11:18;10.93;;;3.35;;
69989;SDS011;57331;52.054;5.294;2023-04-25T03:13:46;16.70;;;3.88;;
69989;SDS011;57331;52.054;5.294;2023-04-25T03:16:14;15.15;;;3.95;;
69989;SDS011;57331;52.054;5.294;2023-04-25T03:18:42;15.07;;;3.78;;
69989;SDS011;57331;52.054;5.294;2023-04-25T03:21:10;15.13;;;3.40;;
69989;SDS011;57331;52.054;5.294;2023-04-25T03:23:37;14.65;;;4.07;;
69989;SDS011;57331;52.054;5.294;2023-04-25T03:26:06;19.70;;;4.32;;
69989;SDS011;57331;52.054;5.294;2023-04-25T03:28:33;14.60;;;3.75;;
69989;SDS011;57331;52.054;5.294;2023-04-25T03:31:00;18.48;;;4.60;;
69989;SDS011;57331;52.054;5.294;2023-04-25T03:33:28;19.43;;;4.30;;
69989;SDS011;57331;52.054;5.294;2023-04-25T03:35:56;13.05;;;3.88;;
69989;SDS011;57331;52.054;5.294;2023-04-25T03:38:24;14.40;;;4.15;;
69989;SDS011;57331;52.054;5.294;2023-04-25T03:40:51;19.50;;;4.85;;
69989;SDS011;57331;52.054;5.294;2023-04-25T03:43:23;13.55;;;3.17;;
69989;SDS011;57331;52.054;5.294;2023-04-25T03:46:00;10.20;;;2.83;;
69989;SDS011;57331;52.054;5.294;2023-04-25T03:48:27;9.45;;;2.67;;
69989;SDS011;57331;52.054;5.294;2023-04-25T03:50:55;10.45;;;2.40;;
69989;SDS011;57331;52.054;5.294;2023-04-25T03:53:22;9.45;;;2.35;;
69989;SDS011;57331;52.054;5.294;2023-04-25T03:56:15;8.65;;;2.40;;
69989;SDS011;57331;52.054;5.294;2023-04-25T03:58:45;6.70;;;2.60;;
69989;SDS011;57331;52.054;5.294;2023-04-25T04:01:14;11.75;;;2.72;;
69989;SDS011;57331;52.054;5.294;2023-04-25T04:03:42;6.90;;;2.25;;
69989;SDS011;57331;52.054;5.294;2023-04-25T04:06:10;13.60;;;2.55;;
69989;SDS011;57331;52.054;5.294;2023-04-25T04:08:40;10.10;;;2.13;;
69989;SDS011;57331;52.054;5.294;2023-04-25T04:11:09;9.90;;;2.77;;
69989;SDS011;57331;52.054;5.294;2023-04-25T04:13:36;13.65;;;2.83;;
69989;SDS011;57331;52.054;5.294;2023-04-25T04:16:05;12.93;;;3.08;;
69989;SDS011;57331;52.054;5.294;2023-04-25T04:18:33;11.52;;;2.58;;
69989;SDS011;57331;52.054;5.294;2023-04-25T04:21:00;9.73;;;2.50;;
69989;SDS011;57331;52.054;5.294;2023-04-25T04:23:30;9.60;;;2.60;;
69989;SDS011;57331;52.054;5.294;2023-04-25T04:25:58;7.90;;;2.58;;
69989;SDS011;57331;52.054;5.294;2023-04-25T04:28:38;7.00;;;2.70;;
69989;SDS011;57331;52.054;5.294;2023-04-25T04:31:15;11.73;;;3.00;;
69989;SDS011;57331;52.054;5.294;2023-04-25T04:33:45;10.45;;;2.80;;
69989;SDS011;57331;52.054;5.294;2023-04-25T04:36:14;10.97;;;2.80;;
69989;SDS011;57331;52.054;5.294;2023-04-25T04:38:42;8.95;;;2.38;;
69989;SDS011;57331;52.054;5.294;2023-04-25T04:41:18;10.05;;;2.42;;
69989;SDS011;57331;52.054;5.294;2023-04-25T04:44:10;9.27;;;2.60;;
69989;SDS011;57331;52.054;5.294;2023-04-25T04:47:09;12.23;;;2.88;;
69989;SDS011;57331;52.054;5.294;2023-04-25T04:49:55;6.60;;;2.40;;
69989;SDS011;57331;52.054;5.294;2023-04-25T04:52:42;10.15;;;2.63;;
69989;SDS011;57331;52.054;5.294;2023-04-25T04:55:27;13.27;;;3.40;;
69989;SDS011;57331;52.054;5.294;2023-04-25T04:58:05;11.10;;;2.50;;
69989;SDS011;57331;52.054;5.294;2023-04-25T05:00:47;12.55;;;2.75;;
69989;SDS011;57331;52.054;5.294;2023-04-25T05:03:50;6.97;;;2.57;;
69989;SDS011;57331;52.054;5.294;2023-04-25T05:06:40;9.15;;;2.33;;
69989;SDS011;57331;52.054;5.294;2023-04-25T05:09:40;10.43;;;2.28;;
69989;SDS011;57331;52.054;5.294;2023-04-25T05:12:26;12.95;;;2.40;;
69989;SDS011;57331;52.054;5.294;2023-04-25T05:15:19;11.57;;;2.33;;
69989;SDS011;57331;52.054;5.294;2023-04-25T05:18:05;8.90;;;2.20;;
69989;SDS011;57331;52.054;5.294;2023-04-25T05:21:02;6.53;;;2.10;;
69989;SDS011;57331;52.054;5.294;2023-04-25T05:23:58;15.43;;;2.47;;
69989;SDS011;57331;52.054;5.294;2023-04-25T05:26:44;11.85;;;2.53;;
69989;SDS011;57331;52.054;5.294;2023-04-25T05:29:31;8.88;;;2.53;;
69989;SDS011;57331;52.054;5.294;2023-04-25T05:32:04;8.00;;;2.43;;
69989;SDS011;57331;52.054;5.294;2023-04-25T05:34:32;10.50;;;2.97;;
69989;SDS011;57331;52.054;5.294;2023-04-25T05:37:04;11.23;;;2.30;;
69989;SDS011;57331;52.054;5.294;2023-04-25T05:39:34;7.53;;;2.22;;
69989;SDS011;57331;52.054;5.294;2023-04-25T05:42:25;6.80;;;1.88;;
69989;SDS011;57331;52.054;5.294;2023-04-25T05:45:21;6.80;;;2.03;;
69989;SDS011;57331;52.054;5.294;2023-04-25T05:48:06;11.75;;;2.78;;
69989;SDS011;57331;52.054;5.294;2023-04-25T05:50:52;6.82;;;2.10;;
69989;SDS011;57331;52.054;5.294;2023-04-25T05:53:40;10.57;;;2.33;;
69989;SDS011;57331;52.054;5.294;2023-04-25T05:56:08;8.00;;;1.88;;
69989;SDS011;57331;52.054;5.294;2023-04-25T05:58:35;8.20;;;2.03;;
69989;SDS011;57331;52.054;5.294;2023-04-25T06:01:03;8.07;;;2.30;;
69989;SDS011;57331;52.054;5.294;2023-04-25T06:03:31;12.23;;;2.08;;
69989;SDS011;57331;52.054;5.294;2023-04-25T06:05:58;7.63;;;2.00;;
69989;SDS011;57331;52.054;5.294;2023-04-25T06:08:25;7.65;;;2.60;;
69989;SDS011;57331;52.054;5.294;2023-04-25T06:10:53;9.07;;;2.50;;
69989;SDS011;57331;52.054;5.294;2023-04-25T06:13:22;7.05;;;2.10;;
69989;SDS011;57331;52.054;5.294;2023-04-25T06:15:49;6.97;;;2.10;;
69989;SDS011;57331;52.054;5.294;2023-04-25T06:18:16;6.88;;;2.10;;
69989;SDS011;57331;52.054;5.294;2023-04-25T06:20:44;6.80;;;2.42;;
69989;SDS011;57331;52.054;5.294;2023-04-25T06:23:11;13.63;;;2.60;;
69989;SDS011;57331;52.054;5.294;2023-04-25T06:25:47;6.53;;;2.47;;
69989;SDS011;57331;52.054;5.294;2023-04-25T06:28:15;8.13;;;2.40;;
69989;SDS011;57331;52.054;5.294;2023-04-25T06:30:43;6.40;;;2.20;;
69989;SDS011;57331;52.054;5.294;2023-04-25T06:33:13;9.63;;;2.63;;
69989;SDS011;57331;52.054;5.294;2023-04-25T06:35:41;8.43;;;2.27;;
69989;SDS011;57331;52.054;5.294;2023-04-25T06:38:11;11.68;;;2.45;;
69989;SDS011;57331;52.054;5.294;2023-04-25T06:40:40;12.85;;;2.50;;
69989;SDS011;57331;52.054;5.294;2023-04-25T06:43:08;10.85;;;2.05;;
69989;SDS011;57331;52.054;5.294;2023-04-25T06:46:02;9.02;;;2.22;;
69989;SDS011;57331;52.054;5.294;2023-04-25T06:48:31;8.80;;;2.10;;
69989;SDS011;57331;52.054;5.294;2023-04-25T06:50:59;9.85;;;2.45;;
69989;SDS011;57331;52.054;5.294;2023-04-25T06:53:27;13.98;;;2.42;;
69989;SDS011;57331;52.054;5.294;2023-04-25T06:55:58;8.07;;;2.38;;
69989;SDS011;57331;52.054;5.294;2023-04-25T06:58:35;6.82;;;2.30;;
69989;SDS011;57331;52.054;5.294;2023-04-25T07:01:11;12.83;;;2.73;;
69989;SDS011;57331;52.054;5.294;2023-04-25T07:03:38;8.40;;;2.47;;
69989;SDS011;57331;52.054;5.294;2023-04-25T07:06:11;14.63;;;1.92;;
69989;SDS011;57331;52.054;5.294;2023-04-25T07:08:38;8.55;;;2.20;;
69989;SDS011;57331;52.054;5.294;2023-04-25T07:11:06;7.15;;;2.05;;
69989;SDS011;57331;52.054;5.294;2023-04-25T07:13:35;12.93;;;1.83;;
69989;SDS011;57331;52.054;5.294;2023-04-25T07:16:03;10.02;;;2.30;;
69989;SDS011;57331;52.054;5.294;2023-04-25T07:18:32;12.25;;;2.58;;
69989;SDS011;57331;52.054;5.294;2023-04-25T07:21:00;6.15;;;2.03;;
69989;SDS011;57331;52.054;5.294;2023-04-25T07:23:30;10.52;;;2.35;;
69989;SDS011;57331;52.054;5.294;2023-04-25T07:25:59;12.10;;;2.40;;
69989;SDS011;57331;52.054;5.294;2023-04-25T07:28:28;11.55;;;1.98;;
69989;SDS011;57331;52.054;5.294;2023-04-25T07:30:55;7.50;;;2.40;;
69989;SDS011;57331;52.054;5.294;2023-04-25T07:33:23;8.82;;;2.25;;
69989;SDS011;57331;52.054;5.294;2023-04-25T07:35:51;17.17;;;2.97;;
69989;SDS011;57331;52.054;5.294;2023-04-25T07:38:19;11.90;;;2.10;;
69989;SDS011;57331;52.054;5.294;2023-04-25T07:40:49;12.68;;;2.67;;
69989;SDS011;57331;52.054;5.294;2023-04-25T07:43:16;11.10;;;1.83;;
69989;SDS011;57331;52.054;5.294;2023-04-25T07:45:56;8.55;;;2.20;;
69989;SDS011;57331;52.054;5.294;2023-04-25T07:48:26;8.73;;;2.13;;
69989;SDS011;57331;52.054;5.294;2023-04-25T07:50:55;10.70;;;2.27;;
69989;SDS011;57331;52.054;5.294;2023-04-25T07:53:22;7.53;;;2.05;;
69989;SDS011;57331;52.054;5.294;2023-04-25T07:55:53;10.07;;;2.20;;
69989;SDS011;57331;52.054;5.294;2023-04-25T07:58:20;7.93;;;2.25;;
69989;SDS011;57331;52.054;5.294;2023-04-25T08:00:58;9.77;;;2.08;;
69989;SDS011;57331;52.054;5.294;2023-04-25T08:04:04;11.13;;;2.17;;
69989;SDS011;57331;52.054;5.294;2023-04-25T08:06:58;8.23;;;2.28;;
69989;SDS011;57331;52.054;5.294;2023-04-25T08:09:29;8.27;;;2.22;;
69989;SDS011;57331;52.054;5.294;2023-04-25T08:12:03;8.05;;;2.45;;
69989;SDS011;57331;52.054;5.294;2023-04-25T08:14:32;10.18;;;2.30;;
69989;SDS011;57331;52.054;5.294;2023-04-25T08:17:03;9.47;;;2.63;;
69989;SDS011;57331;52.054;5.294;2023-04-25T08:19:32;11.88;;;2.58;;
69989;SDS011;57331;52.054;5.294;2023-04-25T08:22:02;14.38;;;3.80;;
69989;SDS011;57331;52.054;5.294;2023-04-25T08:24:40;10.38;;;2.28;;
69989;SDS011;57331;52.054;5.294;2023-04-25T08:27:08;8.63;;;2.33;;
69989;SDS011;57331;52.054;5.294;2023-04-25T08:29:36;8.57;;;1.80;;
69989;SDS011;57331;52.054;5.294;2023-04-25T08:32:03;6.53;;;2.00;;
69989;SDS011;57331;52.054;5.294;2023-04-25T08:34:32;9.88;;;2.42;;
69989;SDS011;57331;52.054;5.294;2023-04-25T08:37:02;5.45;;;1.60;;
69989;SDS011;57331;52.054;5.294;2023-04-25T08:39:47;9.68;;;2.05;;
69989;SDS011;57331;52.054;5.294;2023-04-25T08:42:40;9.60;;;2.17;;
69989;SDS011;57331;52.054;5.294;2023-04-25T08:45:08;10.27;;;2.03;;
69989;SDS011;57331;52.054;5.294;2023-04-25T08:47:38;11.07;;;1.92;;
69989;SDS011;57331;52.054;5.294;2023-04-25T08:50:06;7.32;;;2.00;;
69989;SDS011;57331;52.054;5.294;2023-04-25T08:52:39;6.35;;;2.08;;
69989;SDS011;57331;52.054;5.294;2023-04-25T08:55:12;10.97;;;2.10;;
69989;SDS011;57331;52.054;5.294;2023-04-25T08:57:43;7.35;;;2.00;;
69989;SDS011;57331;52.054;5.294;2023-04-25T09:00:11;10.45;;;1.98;;
69989;SDS011;57331;52.054;5.294;2023-04-25T09:02:41;6.82;;;1.83;;
69989;SDS011;57331;52.054;5.294;2023-04-25T09:05:12;6.30;;;2.00;;
69989;SDS011;57331;52.054;5.294;2023-04-25T09:07:40;6.43;;;1.87;;
69989;SDS011;57331;52.054;5.294;2023-04-25T09:10:08;11.32;;;3.25;;
69989;SDS011;57331;52.054;5.294;2023-04-25T09:12:36;7.95;;;2.25;;
69989;SDS011;57331;52.054;5.294;2023-04-25T09:15:07;6.28;;;1.83;;
69989;SDS011;57331;52.054;5.294;2023-04-25T09:17:59;4.75;;;1.98;;
69989;SDS011;57331;52.054;5.294;2023-04-25T09:20:34;5.07;;;1.70;;
69989;SDS011;57331;52.054;5.294;2023-04-25T09:23:14;7.75;;;1.98;;
69989;SDS011;57331;52.054;5.294;2023-04-25T09:25:41;5.30;;;1.70;;
69989;SDS011;57331;52.054;5.294;2023-04-25T09:28:10;3.40;;;1.40;;
69989;SDS011;57331;52.054;5.294;2023-04-25T09:30:37;11.25;;;2.00;;
69989;SDS011;57331;52.054;5.294;2023-04-25T09:33:11;6.93;;;1.90;;
69989;SDS011;57331;52.054;5.294;2023-04-25T09:35:44;5.75;;;1.83;;
69989;SDS011;57331;52.054;5.294;2023-04-25T09:38:22;5.45;;;1.70;;
69989;SDS011;57331;52.054;5.294;2023-04-25T09:40:58;2.97;;;1.52;;
69989;SDS011;57331;52.054;5.294;2023-04-25T09:43:38;4.10;;;2.00;;
69989;SDS011;57331;52.054;5.294;2023-04-25T09:46:09;4.70;;;1.83;;
69989;SDS011;57331;52.054;5.294;2023-04-25T09:48:41;4.47;;;1.77;;
69989;SDS011;57331;52.054;5.294;2023-04-25T09:51:19;7.35;;;1.90;;
69989;SDS011;57331;52.054;5.294;2023-04-25T09:53:46;10.13;;;1.80;;
69989;SDS011;57331;52.054;5.294;2023-04-25T09:56:37;8.57;;;1.85;;
69989;SDS011;57331;52.054;5.294;2023-04-25T09:59:06;8.40;;;1.80;;
69989;SDS011;57331;52.054;5.294;2023-04-25T10:01:36;8.07;;;1.50;;
69989;SDS011;57331;52.054;5.294;2023-04-25T10:04:12;9.18;;;1.70;;
69989;SDS011;57331;52.054;5.294;2023-04-25T10:07:12;7.55;;;2.10;;
69989;SDS011;57331;52.054;5.294;2023-04-25T10:09:43;6.97;;;1.67;;
69989;SDS011;57331;52.054;5.294;2023-04-25T10:12:13;10.60;;;2.03;;
69989;SDS011;57331;52.054;5.294;2023-04-25T10:14:41;6.65;;;1.80;;
69989;SDS011;57331;52.054;5.294;2023-04-25T10:17:09;6.82;;;1.80;;
69989;SDS011;57331;52.054;5.294;2023-04-25T10:19:37;7.97;;;1.90;;
69989;SDS011;57331;52.054;5.294;2023-04-25T10:22:26;10.40;;;1.88;;
69989;SDS011;57331;52.054;5.294;2023-04-25T10:25:02;8.33;;;1.77;;
69989;SDS011;57331;52.054;5.294;2023-04-25T10:27:30;9.85;;;2.30;;
69989;SDS011;57331;52.054;5.294;2023-04-25T10:30:08;8.00;;;1.98;;
69989;SDS011;57331;52.054;5.294;2023-04-25T10:32:38;7.85;;;2.05;;
69989;SDS011;57331;52.054;5.294;2023-04-25T10:35:18;5.43;;;1.83;;
69989;SDS011;57331;52.054;5.294;2023-04-25T10:37:57;6.93;;;1.90;;
69989;SDS011;57331;52.054;5.294;2023-04-25T10:40:32;5.15;;;1.90;;
69989;SDS011;57331;52.054;5.294;2023-04-25T10:46:01;9.10;;;2.05;;
69989;SDS011;57331;52.054;5.294;2023-04-25T10:48:29;9.60;;;2.45;;
69989;SDS011;57331;52.054;5.294;2023-04-25T10:56:28;7.53;;;1.98;;
69989;SDS011;57331;52.054;5.294;2023-04-25T10:59:05;7.35;;;2.45;;
69989;SDS011;57331;52.054;5.294;2023-04-25T11:01:39;9.70;;;2.10;;
69989;SDS011;57331;52.054;5.294;2023-04-25T11:04:21;5.73;;;2.20;;
69989;SDS011;57331;52.054;5.294;2023-04-25T11:09:35;13.95;;;2.20;;
69989;SDS011;57331;52.054;5.294;2023-04-25T11:12:04;6.88;;;2.10;;
69989;SDS011;57331;52.054;5.294;2023-04-25T11:14:32;8.07;;;2.72;;
69989;SDS011;57331;52.054;5.294;2023-04-25T11:16:59;6.33;;;2.77;;
69989;SDS011;57331;52.054;5.294;2023-04-25T11:19:28;9.15;;;2.40;;
69989;SDS011;57331;52.054;5.294;2023-04-25T11:21:56;5.63;;;2.00;;
69989;SDS011;57331;52.054;5.294;2023-04-25T11:24:27;6.15;;;1.98;;
69989;SDS011;57331;52.054;5.294;2023-04-25T11:26:56;6.68;;;2.08;;
69989;SDS011;57331;52.054;5.294;2023-04-25T11:29:28;6.13;;;2.00;;
69989;SDS011;57331;52.054;5.294;2023-04-25T11:31:56;8.32;;;2.60;;
69989;SDS011;57331;52.054;5.294;2023-04-25T11:34:28;7.05;;;2.20;;
69989;SDS011;57331;52.054;5.294;2023-04-25T11:36:59;5.78;;;2.05;;
69989;SDS011;57331;52.054;5.294;2023-04-25T11:39:28;8.27;;;1.85;;
69989;SDS011;57331;52.054;5.294;2023-04-25T11:41:56;5.70;;;2.10;;
69989;SDS011;57331;52.054;5.294;2023-04-25T11:44:23;5.43;;;2.17;;
69989;SDS011;57331;52.054;5.294;2023-04-25T11:46:51;5.60;;;2.22;;
69989;SDS011;57331;52.054;5.294;2023-04-25T11:49:19;7.68;;;2.33;;
69989;SDS011;57331;52.054;5.294;2023-04-25T11:51:48;5.70;;;2.28;;
69989;SDS011;57331;52.054;5.294;2023-04-25T11:54:15;6.00;;;2.10;;
69989;SDS011;57331;52.054;5.294;2023-04-25T11:56:43;6.93;;;2.10;;
69989;SDS011;57331;52.054;5.294;2023-04-25T11:59:10;6.82;;;2.10;;
69989;SDS011;57331;52.054;5.294;2023-04-25T12:01:40;4.15;;;1.80;;
69989;SDS011;57331;52.054;5.294;2023-04-25T12:06:41;7.70;;;1.67;;
69989;SDS011;57331;52.054;5.294;2023-04-25T12:09:10;9.95;;;2.10;;
69989;SDS011;57331;52.054;5.294;2023-04-25T12:11:42;10.20;;;1.95;;
69989;SDS011;57331;52.054;5.294;2023-04-25T12:14:10;7.43;;;2.78;;
69989;SDS011;57331;52.054;5.294;2023-04-25T12:16:42;5.95;;;2.00;;
69989;SDS011;57331;52.054;5.294;2023-04-25T12:19:16;5.35;;;2.40;;
69989;SDS011;57331;52.054;5.294;2023-04-25T12:21:43;5.70;;;2.33;;
69989;SDS011;57331;52.054;5.294;2023-04-25T12:24:24;5.78;;;2.08;;
69989;SDS011;57331;52.054;5.294;2023-04-25T12:26:53;4.78;;;1.90;;
69989;SDS011;57331;52.054;5.294;2023-04-25T12:29:26;5.38;;;1.90;;
69989;SDS011;57331;52.054;5.294;2023-04-25T12:32:03;6.50;;;1.80;;
69989;SDS011;57331;52.054;5.294;2023-04-25T12:34:31;9.10;;;1.90;;
69989;SDS011;57331;52.054;5.294;2023-04-25T12:37:01;7.72;;;2.00;;
69989;SDS011;57331;52.054;5.294;2023-04-25T12:39:27;5.95;;;1.90;;
69989;SDS011;57331;52.054;5.294;2023-04-25T12:41:55;4.70;;;1.55;;
69989;SDS011;57331;52.054;5.294;2023-04-25T12:44:22;5.30;;;1.93;;
69989;SDS011;57331;52.054;5.294;2023-04-25T12:46:50;6.40;;;2.17;;
69989;SDS011;57331;52.054;5.294;2023-04-25T12:49:17;5.07;;;2.00;;
69989;SDS011;57331;52.054;5.294;2023-04-25T12:51:45;6.07;;;1.95;;
69989;SDS011;57331;52.054;5.294;2023-04-25T12:54:12;6.47;;;2.05;;
69989;SDS011;57331;52.054;5.294;2023-04-25T12:56:40;7.63;;;2.30;;
69989;SDS011;57331;52.054;5.294;2023-04-25T12:59:08;6.57;;;2.13;;
69989;SDS011;57331;52.054;5.294;2023-04-25T13:01:35;8.27;;;2.10;;
69989;SDS011;57331;52.054;5.294;2023-04-25T13:04:03;7.78;;;2.33;;
69989;SDS011;57331;52.054;5.294;2023-04-25T13:06:30;8.55;;;2.35;;
69989;SDS011;57331;52.054;5.294;2023-04-25T13:08:57;6.43;;;2.47;;
69989;SDS011;57331;52.054;5.294;2023-04-25T13:11:25;8.20;;;2.15;;
69989;SDS011;57331;52.054;5.294;2023-04-25T13:13:52;10.00;;;1.90;;
69989;SDS011;57331;52.054;5.294;2023-04-25T13:16:19;9.00;;;2.10;;
69989;SDS011;57331;52.054;5.294;2023-04-25T13:18:47;6.68;;;1.90;;
69989;SDS011;57331;52.054;5.294;2023-04-25T13:21:15;3.50;;;1.70;;
69989;SDS011;57331;52.054;5.294;2023-04-25T13:23:42;7.50;;;2.28;;
69989;SDS011;57331;52.054;5.294;2023-04-25T13:26:10;9.70;;;3.40;;
69989;SDS011;57331;52.054;5.294;2023-04-25T13:28:38;5.68;;;2.20;;
69989;SDS011;57331;52.054;5.294;2023-04-25T13:31:09;5.15;;;2.30;;
69989;SDS011;57331;52.054;5.294;2023-04-25T13:33:36;6.27;;;3.07;;
69989;SDS011;57331;52.054;5.294;2023-04-25T13:36:04;5.78;;;1.90;;
69989;SDS011;57331;52.054;5.294;2023-04-25T13:38:31;4.53;;;2.28;;
69989;SDS011;57331;52.054;5.294;2023-04-25T13:40:58;7.50;;;2.40;;
69989;SDS011;57331;52.054;5.294;2023-04-25T13:43:27;6.22;;;2.30;;
69989;SDS011;57331;52.054;5.294;2023-04-25T13:45:54;5.33;;;2.30;;
69989;SDS011;57331;52.054;5.294;2023-04-25T13:48:21;7.05;;;2.40;;
69989;SDS011;57331;52.054;5.294;2023-04-25T13:50:49;7.70;;;2.50;;
69989;SDS011;57331;52.054;5.294;2023-04-25T13:53:17;9.30;;;2.25;;
69989;SDS011;57331;52.054;5.294;2023-04-25T13:55:44;10.80;;;2.40;;
69989;SDS011;57331;52.054;5.294;2023-04-25T13:58:11;6.32;;;2.35;;
69989;SDS011;57331;52.054;5.294;2023-04-25T14:00:38;6.95;;;2.30;;
69989;SDS011;57331;52.054;5.294;2023-04-25T14:03:08;7.93;;;2.40;;
69989;SDS011;57331;52.054;5.294;2023-04-25T14:05:36;6.75;;;2.75;;
69989;SDS011;57331;52.054;5.294;2023-04-25T14:08:05;6.40;;;2.38;;
69989;SDS011;57331;52.054;5.294;2023-04-25T14:10:36;5.57;;;2.47;;
69989;SDS011;57331;52.054;5.294;2023-04-25T14:13:03;7.57;;;2.60;;
69989;SDS011;57331;52.054;5.294;2023-04-25T14:15:33;10.23;;;2.90;;
69989;SDS011;57331;52.054;5.294;2023-04-25T14:18:01;7.22;;;2.17;;
69989;SDS011;57331;52.054;5.294;2023-04-25T14:20:28;5.13;;;2.03;;
69989;SDS011;57331;52.054;5.294;2023-04-25T14:22:56;7.88;;;2.85;;
69989;SDS011;57331;52.054;5.294;2023-04-25T14:25:24;8.23;;;2.70;;
69989;SDS011;57331;52.054;5.294;2023-04-25T14:27:52;8.77;;;2.08;;
69989;SDS011;57331;52.054;5.294;2023-04-25T14:30:19;6.03;;;2.20;;
69989;SDS011;57331;52.054;5.294;2023-04-25T14:32:48;9.73;;;2.03;;
69989;SDS011;57331;52.054;5.294;2023-04-25T14:35:16;9.43;;;2.00;;
69989;SDS011;57331;52.054;5.294;2023-04-25T14:37:43;9.18;;;2.15;;
69989;SDS011;57331;52.054;5.294;2023-04-25T14:40:11;6.45;;;2.17;;
69989;SDS011;57331;52.054;5.294;2023-04-25T14:42:41;6.75;;;2.10;;
69989;SDS011;57331;52.054;5.294;2023-04-25T14:45:08;7.35;;;1.98;;
69989;SDS011;57331;52.054;5.294;2023-04-25T14:47:36;8.03;;;2.73;;
69989;SDS011;57331;52.054;5.294;2023-04-25T14:50:03;4.32;;;1.95;;
69989;SDS011;57331;52.054;5.294;2023-04-25T14:52:31;7.22;;;2.08;;
69989;SDS011;57331;52.054;5.294;2023-04-25T14:54:59;10.50;;;2.78;;
69989;SDS011;57331;52.054;5.294;2023-04-25T14:57:31;7.97;;;2.28;;
69989;SDS011;57331;52.054;5.294;2023-04-25T14:59:59;10.43;;;2.70;;
69989;SDS011;57331;52.054;5.294;2023-04-25T15:02:27;6.70;;;2.33;;
69989;SDS011;57331;52.054;5.294;2023-04-25T15:04:54;4.43;;;2.30;;
69989;SDS011;57331;52.054;5.294;2023-04-25T15:07:22;8.30;;;2.42;;
69989;SDS011;57331;52.054;5.294;2023-04-25T15:09:50;7.68;;;2.30;;
69989;SDS011;57331;52.054;5.294;2023-04-25T15:12:17;7.78;;;2.40;;
69989;SDS011;57331;52.054;5.294;2023-04-25T15:14:44;6.22;;;2.70;;
69989;SDS011;57331;52.054;5.294;2023-04-25T15:17:11;5.05;;;2.25;;
69989;SDS011;57331;52.054;5.294;2023-04-25T15:19:40;5.15;;;2.30;;